Aeroporto :
LOGIN :

Iscrizione | Disclaimer

   EN    FR    IT 

 










Sommario :    VFR   VFR Marginale   IFR   IFR Intensivo   IFR Molto Intensivo
Visibilità : 
Base nubi : 
>= 8 km
>= 3000ft
5 / 8 km
1000 / 3000 ft
1500m / 5 km
500 / 1000 ft
800 / 1500m
200 / 500 ft
< 800m
< 200 ft
Simboli :   Temporali  Nebbia  Neve Forte  Precipitazioni Forti  Vento > 20 kt
SIGMETs :   Varie  Temporali  Ghiacco  Turbolenza  Onda orograficha  Ceneri Vulcaniche






- Altitudine del aeroporto : 401 ft
- Codice IATA : LEQ


EGHC - Land's End

ULTIMO METAR :
  • 291320Z 30008KT 9999 VCSH FEW010 14/11 Q1011

METARs OBSOLETI :
  • 291250Z 25009KT 210V280 9999 -SHRA FEW015 15/12 Q1011
  • 291220Z 25011KT 9999 VCSH FEW018 16/10 Q1012
  • 291150Z 25011KT 9999 FEW015 15/12 Q1011
  • 291120Z 26011KT 9999 FEW016 15/11 Q1011
  • 291050Z 26011KT 9999 FEW014 15/11 Q1011

TAF TAF EGHC
Valido dal 29 a 12 ore il 29 a 18 ore UTC


291055Z 2912/2918 26010KT 9999 SCT020
TEMPO 2912/2918 7000 SHRA BKN014
PROB30
TEMPO 2912/2918 4000 +SHRA



MetMap, La meteo Aeronautica in un colpo d'occhio ! - Copyright ORBIFLY Dicembre 2007 - Disclaimer

ORBIFLY MET'MAP TEAM :

Programmazione e sviluppo : Alexandra Zaïnal
Concezione : Baudouin d'Aumeries
Supporto tecnico e logistico : Manuel Goepfert
Aiuto : Marc-Olivier Méhu
Aiuto per la traduzione : Arnaldo La Scala




FONTI E CREDITI :

   NOAA